createdAt,value
2019-01-09T00:00:43.575Z,98.70
2019-01-09T00:03:11.991Z,98.70
2019-01-09T00:05:40.491Z,98.90
2019-01-09T00:08:08.961Z,99.20
2019-01-09T00:10:37.381Z,99.40
2019-01-09T00:13:05.799Z,99.60
2019-01-09T00:15:34.209Z,99.80
2019-01-09T00:18:02.623Z,99.70
2019-01-09T00:20:31.046Z,99.70
2019-01-09T00:22:59.466Z,99.80
2019-01-09T00:25:27.889Z,99.90
2019-01-09T00:27:56.285Z,99.90
2019-01-09T00:30:24.797Z,99.90
2019-01-09T00:32:53.279Z,99.90
2019-01-09T00:35:21.705Z,99.90
2019-01-09T00:37:50.176Z,99.70
2019-01-09T00:40:18.751Z,99.90
2019-01-09T00:42:47.155Z,99.50
2019-01-09T00:45:15.654Z,99.50
2019-01-09T00:47:44.057Z,99.70
2019-01-09T00:50:13.127Z,99.30
2019-01-09T00:52:41.696Z,99.20
2019-01-09T00:55:11.060Z,99.20
2019-01-09T00:57:39.608Z,99.10
2019-01-09T01:00:16.380Z,98.90
2019-01-09T01:03:02.637Z,98.90
2019-01-09T01:05:46.172Z,98.70
2019-01-09T01:08:32.969Z,98.60
2019-01-09T01:11:29.972Z,98.80
2019-01-09T01:14:01.482Z,99.00
2019-01-09T01:16:52.651Z,99.40
2019-01-09T01:19:32.411Z,99.70
2019-01-09T01:22:06.869Z,99.90
2019-01-09T01:24:55.154Z,99.90
2019-01-09T01:27:29.560Z,99.90
2019-01-09T01:30:06.910Z,99.90
2019-01-09T01:32:53.377Z,99.90
2019-01-09T01:35:42.770Z,99.90
2019-01-09T01:38:29.254Z,99.90
2019-01-09T01:41:09.537Z,99.90
2019-01-09T01:43:52.893Z,99.90
2019-01-09T01:46:27.047Z,99.90
2019-01-09T01:49:04.403Z,99.90
2019-01-09T01:51:35.901Z,99.90
2019-01-09T01:54:25.705Z,99.90
2019-01-09T01:57:08.458Z,99.90
2019-01-09T01:59:42.644Z,99.90
2019-01-09T02:02:39.855Z,99.90
2019-01-09T02:05:20.409Z,99.90
2019-01-09T02:08:03.764Z,99.90
2019-01-09T02:11:01.029Z,99.90
2019-01-09T02:13:56.592Z,99.90
2019-01-09T02:16:42.457Z,99.90
2019-01-09T02:19:19.718Z,99.90
2019-01-09T02:21:53.799Z,99.90
2019-01-09T02:24:45.998Z,99.90
2019-01-09T02:27:20.364Z,99.90
2019-01-09T02:30:00.887Z,99.90
2019-01-09T02:32:32.944Z,99.90
2019-01-09T02:35:01.348Z,99.90
2019-01-09T02:37:29.771Z,99.90
2019-01-09T02:39:58.248Z,99.90
2019-01-09T02:42:26.683Z,99.90
2019-01-09T02:44:55.099Z,99.90
2019-01-09T02:47:23.514Z,99.90
2019-01-09T02:49:52.065Z,99.90
2019-01-09T02:52:20.569Z,99.90
2019-01-09T02:54:48.976Z,99.90
2019-01-09T02:57:17.415Z,99.90
2019-01-09T02:59:45.813Z,99.90
2019-01-09T03:02:14.264Z,99.90
2019-01-09T03:04:42.682Z,99.90
2019-01-09T03:07:11.107Z,99.90
2019-01-09T03:09:39.534Z,99.90
2019-01-09T03:12:08.031Z,99.90
2019-01-09T03:14:36.446Z,99.90
2019-01-09T03:17:04.952Z,99.90
2019-01-09T03:19:33.354Z,99.90
2019-01-09T03:22:01.773Z,99.90
2019-01-09T03:24:30.177Z,99.90
2019-01-09T03:26:58.602Z,99.90
2019-01-09T03:29:27.018Z,99.90
2019-01-09T03:31:55.545Z,99.90
2019-01-09T03:34:24.042Z,99.90
2019-01-09T03:36:52.484Z,99.90
2019-01-09T03:39:20.894Z,99.90
2019-01-09T03:41:49.313Z,99.90
2019-01-09T03:44:17.792Z,99.90
2019-01-09T03:46:46.236Z,99.90
2019-01-09T03:49:14.636Z,99.90
2019-01-09T03:51:43.087Z,99.90
2019-01-09T03:54:11.507Z,99.90
2019-01-09T03:56:39.993Z,99.90
2019-01-09T03:59:08.405Z,99.90
2019-01-09T04:01:37.169Z,99.90
2019-01-09T04:04:05.599Z,99.90
2019-01-09T04:06:41.874Z,99.90
2019-01-09T04:09:05.100Z,99.90
2019-01-09T04:11:33.516Z,99.90
2019-01-09T04:14:01.936Z,99.90
2019-01-09T04:16:30.359Z,99.90
2019-01-09T04:18:59.737Z,99.90
2019-01-09T04:21:28.175Z,99.90
2019-01-09T04:23:56.572Z,99.90
2019-01-09T04:26:25.000Z,99.90
2019-01-09T04:28:53.401Z,99.90
2019-01-09T04:31:21.841Z,99.90
2019-01-09T04:33:50.241Z,99.90
2019-01-09T04:36:18.690Z,99.90
2019-01-09T04:38:47.099Z,99.90
2019-01-09T04:41:15.517Z,99.90
2019-01-09T04:43:43.917Z,99.90
2019-01-09T04:46:12.331Z,99.90
2019-01-09T04:48:40.757Z,99.90
2019-01-09T04:51:09.198Z,99.90
2019-01-09T04:53:37.621Z,99.90
2019-01-09T04:56:06.046Z,99.90
2019-01-09T04:58:34.454Z,99.90
2019-01-09T05:01:02.899Z,99.90
2019-01-09T05:03:31.332Z,99.90
2019-01-09T05:05:59.737Z,99.90
2019-01-09T05:08:28.177Z,99.90
2019-01-09T05:10:56.598Z,99.90
2019-01-09T05:13:25.021Z,99.90
2019-01-09T05:15:53.417Z,99.90
2019-01-09T05:18:21.840Z,99.90
2019-01-09T05:20:50.246Z,99.90
2019-01-09T05:23:18.690Z,99.90
2019-01-09T05:25:47.382Z,99.90
2019-01-09T05:28:15.796Z,99.90
2019-01-09T05:30:44.201Z,99.90
2019-01-09T05:33:12.624Z,99.90
2019-01-09T05:35:41.038Z,99.90
2019-01-09T05:38:09.463Z,99.90
2019-01-09T05:40:37.883Z,99.90
2019-01-09T05:43:06.741Z,99.90
2019-01-09T05:45:35.236Z,99.90
2019-01-09T05:48:03.647Z,99.90
2019-01-09T05:50:32.045Z,99.90
2019-01-09T05:53:00.496Z,99.90
2019-01-09T05:55:28.911Z,99.90
2019-01-09T05:57:57.325Z,99.90
2019-01-09T06:00:26.649Z,99.90
2019-01-09T06:02:55.072Z,99.90
2019-01-09T06:05:23.495Z,99.90
2019-01-09T06:07:51.926Z,99.90
2019-01-09T06:10:20.344Z,99.90
2019-01-09T06:12:48.775Z,99.90
2019-01-09T06:15:17.184Z,99.90
2019-01-09T06:17:45.630Z,99.90
2019-01-09T06:20:14.055Z,99.90
2019-01-09T06:22:42.479Z,99.90
2019-01-09T06:25:10.892Z,99.90
2019-01-09T06:27:39.317Z,99.90
2019-01-09T06:30:09.897Z,99.90
2019-01-09T06:32:38.009Z,99.90
2019-01-09T06:35:06.515Z,99.90
2019-01-09T06:37:34.912Z,99.90
2019-01-09T06:40:06.044Z,99.90
2019-01-09T06:42:34.451Z,99.90
2019-01-09T06:45:02.871Z,99.90
2019-01-09T06:47:31.290Z,99.90
2019-01-09T06:49:59.727Z,99.90
2019-01-09T06:52:28.143Z,99.90
2019-01-09T06:54:56.560Z,99.90
2019-01-09T06:57:24.969Z,99.90
2019-01-09T06:59:53.403Z,99.90
2019-01-09T07:02:21.809Z,99.90
2019-01-09T07:04:50.238Z,99.90
2019-01-09T07:07:18.655Z,99.90
2019-01-09T07:09:47.086Z,99.90
2019-01-09T07:12:15.526Z,99.90
2019-01-09T07:14:43.933Z,99.90
2019-01-09T07:17:12.342Z,99.90
2019-01-09T07:19:40.853Z,99.90
2019-01-09T07:22:09.290Z,99.90
2019-01-09T07:24:37.704Z,99.90
2019-01-09T07:27:06.112Z,99.90
2019-01-09T07:29:34.563Z,99.90
2019-01-09T07:32:02.973Z,99.90
2019-01-09T07:34:31.392Z,99.90
2019-01-09T07:36:59.805Z,99.90
2019-01-09T07:39:28.225Z,99.90
2019-01-09T07:41:56.642Z,99.90
2019-01-09T07:44:25.129Z,99.90
2019-01-09T07:46:54.563Z,99.90
2019-01-09T07:49:23.001Z,99.90
2019-01-09T07:51:51.421Z,99.90
2019-01-09T07:54:19.851Z,99.90
2019-01-09T07:56:48.256Z,99.90
2019-01-09T07:59:16.701Z,99.90
2019-01-09T08:01:45.130Z,99.90
2019-01-09T08:04:13.548Z,99.90
2019-01-09T08:06:41.973Z,99.90
2019-01-09T08:09:10.397Z,99.90
2019-01-09T08:11:38.815Z,99.90
2019-01-09T08:14:07.251Z,99.90
2019-01-09T08:16:35.652Z,99.90
2019-01-09T08:19:04.176Z,99.90
2019-01-09T08:21:32.606Z,99.90
2019-01-09T08:24:01.021Z,99.90
2019-01-09T08:26:30.503Z,99.90
2019-01-09T08:28:59.077Z,99.90
2019-01-09T08:31:27.483Z,99.90
2019-01-09T08:33:55.921Z,99.90
2019-01-09T08:36:24.326Z,99.90
2019-01-09T08:38:52.748Z,99.90
2019-01-09T08:41:21.524Z,99.90
2019-01-09T08:43:49.947Z,99.90
2019-01-09T08:46:18.350Z,99.90
2019-01-09T08:48:46.756Z,99.90
2019-01-09T08:51:15.180Z,99.90
2019-01-09T08:53:43.618Z,99.90
2019-01-09T08:56:12.027Z,99.90
2019-01-09T08:58:40.430Z,99.90
2019-01-09T09:01:08.853Z,99.90
2019-01-09T09:03:37.295Z,99.90
2019-01-09T09:06:05.730Z,99.90
2019-01-09T09:08:34.375Z,99.90
2019-01-09T09:11:02.879Z,99.90
2019-01-09T09:13:38.327Z,99.90
2019-01-09T09:16:07.877Z,99.90
2019-01-09T09:18:36.359Z,99.90
2019-01-09T09:21:06.758Z,99.90
2019-01-09T09:23:35.164Z,99.90
2019-01-09T09:26:03.826Z,99.90
2019-01-09T09:28:32.224Z,99.90
2019-01-09T09:31:00.671Z,99.90
2019-01-09T09:33:29.103Z,99.90
2019-01-09T09:35:57.517Z,99.90
2019-01-09T09:38:25.954Z,99.90
2019-01-09T09:40:54.384Z,99.90
2019-01-09T09:43:23.822Z,99.90
2019-01-09T09:45:52.389Z,99.90
2019-01-09T09:48:20.792Z,99.90
2019-01-09T09:50:49.219Z,99.90
2019-01-09T09:53:17.636Z,99.90
2019-01-09T09:55:46.072Z,99.90
2019-01-09T09:58:14.484Z,99.90
2019-01-09T10:00:42.900Z,99.90
2019-01-09T10:03:11.312Z,99.90
2019-01-09T10:05:39.919Z,99.90
2019-01-09T10:08:08.358Z,99.90
2019-01-09T10:10:36.783Z,99.90
2019-01-09T10:13:05.180Z,99.90
2019-01-09T10:15:39.813Z,99.90
2019-01-09T10:18:08.272Z,99.90
2019-01-09T10:20:36.737Z,99.90
2019-01-09T10:23:05.201Z,99.90
2019-01-09T10:25:33.708Z,99.90
2019-01-09T10:28:02.102Z,99.90
2019-01-09T10:30:30.525Z,99.90
2019-01-09T10:32:58.983Z,99.90
2019-01-09T10:35:27.413Z,99.90
2019-01-09T10:37:55.823Z,99.90
2019-01-09T10:40:24.316Z,99.90
2019-01-09T10:42:52.826Z,99.90
2019-01-09T10:45:22.083Z,99.90
2019-01-09T10:47:50.560Z,99.90
2019-01-09T10:50:19.134Z,99.90
2019-01-09T10:52:47.539Z,99.90
2019-01-09T10:55:18.136Z,99.90
2019-01-09T10:57:46.605Z,99.90
2019-01-09T11:00:18.519Z,99.90
2019-01-09T11:02:47.105Z,99.90
2019-01-09T11:05:15.761Z,99.90
2019-01-09T11:07:44.247Z,99.90
2019-01-09T11:10:16.013Z,99.90
2019-01-09T11:12:44.408Z,99.90
2019-01-09T11:15:13.683Z,99.90
2019-01-09T11:17:42.253Z,99.90
2019-01-09T11:20:19.344Z,99.90
2019-01-09T11:22:47.745Z,99.90
2019-01-09T11:25:21.637Z,99.90
2019-01-09T11:27:50.037Z,99.90
2019-01-09T11:30:20.019Z,99.90
2019-01-09T11:32:48.424Z,99.90
2019-01-09T11:35:19.388Z,99.90
2019-01-09T11:37:47.820Z,99.90
2019-01-09T11:40:18.772Z,99.90
2019-01-09T11:42:47.274Z,99.90
2019-01-09T11:45:20.193Z,99.90
2019-01-09T11:47:49.065Z,99.90
2019-01-09T11:50:18.007Z,99.90
2019-01-09T11:52:46.518Z,99.90
2019-01-09T11:55:15.777Z,99.90
2019-01-09T11:57:44.273Z,99.90
2019-01-09T12:00:15.763Z,99.90
2019-01-09T12:02:44.199Z,99.90
2019-01-09T12:05:12.665Z,99.90
2019-01-09T12:07:41.108Z,99.90
2019-01-09T12:10:15.222Z,99.90
2019-01-09T12:12:43.807Z,99.90
2019-01-09T12:15:13.945Z,99.90
2019-01-09T12:17:42.366Z,99.90
2019-01-09T12:20:13.548Z,99.90
2019-01-09T12:22:42.081Z,99.90
2019-01-09T12:25:11.529Z,99.90
2019-01-09T12:27:40.023Z,99.90
2019-01-09T12:30:11.523Z,99.90
2019-01-09T12:32:39.936Z,99.90
2019-01-09T12:35:08.685Z,99.90
2019-01-09T12:37:37.163Z,99.90
2019-01-09T12:40:07.863Z,99.90
2019-01-09T12:42:36.298Z,99.90
2019-01-09T12:45:07.791Z,99.90
2019-01-09T12:47:36.223Z,99.90
2019-01-09T12:50:07.714Z,99.90
2019-01-09T12:52:36.138Z,99.90
2019-01-09T12:55:05.879Z,99.90
2019-01-09T12:57:34.300Z,99.90
2019-01-09T13:00:03.691Z,99.90
2019-01-09T13:02:35.702Z,99.90
2019-01-09T13:05:05.437Z,99.90
2019-01-09T13:07:33.944Z,99.90
2019-01-09T13:10:02.356Z,99.90
2019-01-09T13:12:30.869Z,99.90
2019-01-09T13:14:59.265Z,99.90
2019-01-09T13:17:27.690Z,99.90
2019-01-09T13:19:56.101Z,99.90
2019-01-09T13:22:24.539Z,99.90
2019-01-09T13:24:52.945Z,99.90
2019-01-09T13:27:21.378Z,99.90
2019-01-09T13:29:49.781Z,99.90
2019-01-09T13:32:18.224Z,99.90
2019-01-09T13:34:46.625Z,99.90
2019-01-09T13:37:15.053Z,99.90
2019-01-09T13:39:43.464Z,99.90
2019-01-09T13:42:11.885Z,99.90
2019-01-09T13:44:40.293Z,99.90
2019-01-09T13:47:09.720Z,99.90
2019-01-09T13:49:38.141Z,99.90
2019-01-09T13:52:06.629Z,99.90
2019-01-09T13:54:35.048Z,99.90
2019-01-09T13:57:03.540Z,99.90
2019-01-09T13:59:31.950Z,99.90
2019-01-09T14:02:00.362Z,99.90
2019-01-09T14:04:28.770Z,99.90
2019-01-09T14:06:57.187Z,99.90
2019-01-09T14:09:25.672Z,99.90
2019-01-09T14:11:54.093Z,99.90
2019-01-09T14:14:22.500Z,99.90
2019-01-09T14:16:50.994Z,99.90
2019-01-09T14:19:19.502Z,99.90
2019-01-09T14:21:47.917Z,99.90
2019-01-09T14:24:16.337Z,99.90
2019-01-09T14:26:44.734Z,99.90
2019-01-09T14:29:13.162Z,99.90
2019-01-09T14:31:41.564Z,99.90
2019-01-09T14:34:09.995Z,99.90
2019-01-09T14:36:38.409Z,99.90
2019-01-09T14:39:07.570Z,99.90
2019-01-09T14:41:36.000Z,99.90
2019-01-09T14:44:04.680Z,99.90
2019-01-09T14:46:33.108Z,99.90
2019-01-09T14:49:03.507Z,99.90
2019-01-09T14:51:31.944Z,99.90
2019-01-09T14:54:00.381Z,99.60
2019-01-09T14:56:28.782Z,99.80
2019-01-09T14:58:57.242Z,99.90
2019-01-09T15:01:25.712Z,99.90
2019-01-09T15:03:54.212Z,99.40
2019-01-09T15:06:22.670Z,99.40
2019-01-09T15:08:51.145Z,99.10
2019-01-09T15:11:20.522Z,99.50
2019-01-09T15:13:48.946Z,99.80
2019-01-09T15:16:17.345Z,99.90
2019-01-09T15:18:45.760Z,99.90
2019-01-09T15:21:14.164Z,99.90
2019-01-09T15:23:42.657Z,99.90
2019-01-09T15:26:11.068Z,99.90
2019-01-09T15:28:39.485Z,99.90
2019-01-09T15:31:07.975Z,99.90
2019-01-09T15:33:36.401Z,99.90
2019-01-09T15:36:06.923Z,99.90
2019-01-09T15:38:35.343Z,99.90
2019-01-09T15:41:04.027Z,99.90
2019-01-09T15:43:32.459Z,99.90
2019-01-09T15:46:00.860Z,99.90
2019-01-09T15:48:29.296Z,99.90
2019-01-09T15:50:57.701Z,99.90
2019-01-09T15:53:26.117Z,99.90
2019-01-09T15:55:54.520Z,99.90
2019-01-09T15:58:23.014Z,99.90
2019-01-09T16:00:51.491Z,99.90
2019-01-09T16:03:19.930Z,99.90
2019-01-09T16:05:48.357Z,99.90
2019-01-09T16:08:16.783Z,99.90
2019-01-09T16:10:45.260Z,99.90
2019-01-09T16:13:13.700Z,99.90
2019-01-09T16:15:42.107Z,99.90
2019-01-09T16:18:10.540Z,99.90
2019-01-09T16:20:38.938Z,99.90
2019-01-09T16:23:07.375Z,99.90
2019-01-09T16:25:35.789Z,99.90
2019-01-09T16:28:06.279Z,99.90
2019-01-09T16:30:43.696Z,99.90
2019-01-09T16:33:12.122Z,99.90
2019-01-09T16:35:40.569Z,99.90
2019-01-09T16:38:08.983Z,99.90
2019-01-09T16:40:37.405Z,99.90
2019-01-09T16:43:05.831Z,99.90
2019-01-09T16:45:34.263Z,99.90
2019-01-09T16:48:02.676Z,99.90
2019-01-09T16:50:31.093Z,99.90
2019-01-09T16:52:59.505Z,99.90
2019-01-09T16:55:28.372Z,99.90
2019-01-09T16:57:56.862Z,99.90
2019-01-09T17:00:30.734Z,99.90
2019-01-09T17:02:59.281Z,99.90
2019-01-09T17:05:28.137Z,99.90
2019-01-09T17:07:57.623Z,99.90
2019-01-09T17:10:32.247Z,99.90
2019-01-09T17:12:56.336Z,99.90
2019-01-09T17:15:24.756Z,99.90
2019-01-09T17:17:54.161Z,99.90
2019-01-09T17:20:24.655Z,99.90
2019-01-09T17:22:53.121Z,99.90
2019-01-09T17:25:21.628Z,99.90
2019-01-09T17:27:50.364Z,99.90
2019-01-09T17:30:28.979Z,99.90
2019-01-09T17:32:57.457Z,99.90
2019-01-09T17:35:25.899Z,99.90
2019-01-09T17:37:54.306Z,99.90
2019-01-09T17:40:23.969Z,99.90
2019-01-09T17:42:52.446Z,99.90
2019-01-09T17:45:20.864Z,99.90
2019-01-09T17:47:49.337Z,99.90
2019-01-09T17:50:24.845Z,99.90
2019-01-09T17:52:53.690Z,99.90
2019-01-09T17:55:22.249Z,99.90
2019-01-09T17:57:50.661Z,99.90
2019-01-09T18:00:27.517Z,99.90
2019-01-09T18:02:55.930Z,99.90
2019-01-09T18:05:24.486Z,99.90
2019-01-09T18:07:53.017Z,99.90
2019-01-09T18:10:24.248Z,99.90
2019-01-09T18:12:53.004Z,99.90
2019-01-09T18:15:23.440Z,99.90
2019-01-09T18:17:52.181Z,99.90
2019-01-09T18:20:22.143Z,99.90
2019-01-09T18:22:50.864Z,99.90
2019-01-09T18:25:27.762Z,99.90
2019-01-09T18:27:56.179Z,99.90
2019-01-09T18:30:37.085Z,99.90
2019-01-09T18:33:12.053Z,99.90
2019-01-09T18:35:49.309Z,99.90
2019-01-09T18:38:43.606Z,99.90
2019-01-09T18:41:18.218Z,99.90
2019-01-09T18:43:58.638Z,99.90
2019-01-09T18:46:35.826Z,99.90
2019-01-09T18:49:19.966Z,99.90
2019-01-09T18:52:09.424Z,99.90
2019-01-09T18:54:38.105Z,99.90
2019-01-09T18:57:06.592Z,99.90
2019-01-09T18:59:55.180Z,99.90
2019-01-09T19:02:23.590Z,99.90
2019-01-09T19:04:52.219Z,99.90
2019-01-09T19:07:20.878Z,99.90
2019-01-09T19:09:49.284Z,99.90
2019-01-09T19:12:17.773Z,99.90
2019-01-09T19:14:46.197Z,99.90
2019-01-09T19:17:15.148Z,99.90
2019-01-09T19:19:43.596Z,99.90
2019-01-09T19:22:12.064Z,99.90
2019-01-09T19:24:40.567Z,99.90
2019-01-09T19:27:08.968Z,99.90
2019-01-09T19:29:37.869Z,99.90
2019-01-09T19:32:06.515Z,99.90
2019-01-09T19:34:54.281Z,99.90
2019-01-09T19:37:22.678Z,99.90
2019-01-09T19:39:51.101Z,99.90
2019-01-09T19:42:19.581Z,99.90
2019-01-09T19:44:48.023Z,99.90
2019-01-09T19:47:17.485Z,99.90
2019-01-09T19:49:45.995Z,99.90
2019-01-09T19:52:14.405Z,99.90
2019-01-09T19:54:42.817Z,99.90
2019-01-09T19:57:11.233Z,99.90
2019-01-09T19:59:39.662Z,99.90
2019-01-09T20:02:08.219Z,99.90
2019-01-09T20:04:36.766Z,99.90
2019-01-09T20:07:05.448Z,99.90
2019-01-09T20:09:33.955Z,99.90
2019-01-09T20:12:02.507Z,99.90
2019-01-09T20:14:31.145Z,99.90
2019-01-09T20:16:59.709Z,99.90
2019-01-09T20:19:28.120Z,99.90
2019-01-09T20:21:56.698Z,99.90
2019-01-09T20:24:25.081Z,99.90
2019-01-09T20:26:53.616Z,99.90
2019-01-09T20:29:22.261Z,99.90
2019-01-09T20:31:50.816Z,99.90
2019-01-09T20:34:19.208Z,99.90
2019-01-09T20:36:47.814Z,99.90
2019-01-09T20:39:16.213Z,99.90
2019-01-09T20:41:44.659Z,99.90
2019-01-09T20:44:13.207Z,99.90
2019-01-09T20:46:41.706Z,99.90
2019-01-09T20:49:10.096Z,99.90
2019-01-09T20:51:38.554Z,99.90
2019-01-09T20:54:09.228Z,99.90
2019-01-09T20:56:37.327Z,99.90
2019-01-09T20:59:05.935Z,99.90
2019-01-09T21:01:34.413Z,99.90
2019-01-09T21:04:02.949Z,99.90
2019-01-09T21:06:33.421Z,99.90
2019-01-09T21:09:01.993Z,99.90
2019-01-09T21:11:30.414Z,99.90
2019-01-09T21:13:58.870Z,99.90
2019-01-09T21:16:27.359Z,99.90
2019-01-09T21:18:55.761Z,99.90
2019-01-09T21:21:24.188Z,99.90
2019-01-09T21:23:52.660Z,99.90
2019-01-09T21:26:21.160Z,99.90
2019-01-09T21:28:49.690Z,99.90
2019-01-09T21:31:18.132Z,99.90
2019-01-09T21:33:46.619Z,99.90
2019-01-09T21:36:15.039Z,99.90
2019-01-09T21:38:43.449Z,99.90
2019-01-09T21:41:12.052Z,99.90
2019-01-09T21:43:40.618Z,99.90
2019-01-09T21:46:09.084Z,99.90
2019-01-09T21:48:37.507Z,99.90
2019-01-09T21:51:06.351Z,99.90
2019-01-09T21:53:34.757Z,99.90
2019-01-09T21:56:03.261Z,99.90
2019-01-09T21:58:31.668Z,99.90
2019-01-09T22:01:00.168Z,99.90
2019-01-09T22:03:28.635Z,99.90
2019-01-09T22:06:16.407Z,99.90
2019-01-09T22:08:44.832Z,99.90
2019-01-09T22:11:13.253Z,99.90
2019-01-09T22:13:41.817Z,99.90
2019-01-09T22:16:10.245Z,99.90
2019-01-09T22:18:38.653Z,99.90
2019-01-09T22:21:07.150Z,99.90
2019-01-09T22:23:35.557Z,99.90
2019-01-09T22:26:04.267Z,99.90
2019-01-09T22:28:33.653Z,99.90
2019-01-09T22:31:02.092Z,99.90
2019-01-09T22:33:30.512Z,99.90
2019-01-09T22:35:58.929Z,99.90
2019-01-09T22:38:27.372Z,99.90
2019-01-09T22:40:55.804Z,99.90
2019-01-09T22:43:24.214Z,99.90
2019-01-09T22:45:52.628Z,99.90
2019-01-09T22:48:21.037Z,99.90
2019-01-09T22:50:49.456Z,99.90
2019-01-09T22:53:17.881Z,99.90
2019-01-09T22:55:48.404Z,99.90
2019-01-09T22:58:16.822Z,99.90
2019-01-09T23:00:48.300Z,99.90
2019-01-09T23:03:17.198Z,99.90
2019-01-09T23:05:45.664Z,99.90
2019-01-09T23:08:14.089Z,99.90
2019-01-09T23:10:42.586Z,99.90
2019-01-09T23:13:11.079Z,99.90
2019-01-09T23:15:39.480Z,99.90
2019-01-09T23:18:07.977Z,99.90
2019-01-09T23:20:36.562Z,99.90
2019-01-09T23:23:05.239Z,99.90
2019-01-09T23:25:33.723Z,99.90
2019-01-09T23:28:02.208Z,99.90
2019-01-09T23:30:30.689Z,99.90
2019-01-09T23:32:59.192Z,99.90
2019-01-09T23:35:27.590Z,99.90
2019-01-09T23:37:56.028Z,99.90
2019-01-09T23:40:24.506Z,99.90
2019-01-09T23:42:52.928Z,99.90
2019-01-09T23:45:21.408Z,99.90
2019-01-09T23:47:49.836Z,99.90
2019-01-09T23:50:18.237Z,99.90
2019-01-09T23:52:46.656Z,99.90
2019-01-09T23:55:15.143Z,99.90
2019-01-09T23:57:43.565Z,99.90
